Terminal Aerodrome Forecast
Issued by NWS Twin Cities, MN

Home | Current Version | Previous Version | Graphics & Text | Print | Product List | Glossary On
Versions: 1 2 3 4 5 6 7 8 9 10 11 12 13 14 15 16 17 18 19 20 21 22 23 24 25 26 27 28 29 30 31 32
000
FTUS43 KMPX 250310 AAB
TAFMSP
TAF AMD
KMSP 250310Z 2503/2606 05007KT P6SM SCT025 OVC100
      TEMPO 2503/2506 BKN025 OVC100
     FM250600 03010KT 5SM -SN OVC025
     FM250800 03014G22KT P6SM -SN OVC014
     FM251000 03013KT P6SM BKN020
     FM251500 03010KT P6SM SCT030=

USA.gov is the U.S. government's official web portal to all federal, state and local government web resources and services.